Ambler, Alaska
Current Conditions -  °F | °C
As of 10:56 AM on Saturday 25 Oct 2014 (Local Time) from PAFM Reporting Station
Overcast Overcast  
Wind Chill: 25°   Ceiling: 2100
Heat Index: 25°   Visibility: 3mi
Dew Point: 21°   Wind: 0mph
Humidity: 86%   Direction: NA
Pressure: 29.78"   Gusts: NA
Location:  67.09°N, 157.85°W
Report Text: PAFM 251856Z AUTO 00000KT 3SM OVC021 M04/M06 A2978 RMK AO1
Loading
Personal Weather Stations






























Interactive Weather Map New forecast layout! Learn more

10-Day Weather Forecast

Advertisements
Track Severe Weather on mobile